TLPL/UVF METAR and TAF weather

Enter ICAO airport designator
Station Type Date Time Source
TLPL METAR 2019/08/22 07:00 UTC NOAA

TLPL 220700Z 12011KT 9999 BKN023 28/24 Q1014 NOSIG


Station Type Date Time Source
TLPL Decoded METAR 2019/08/22 07:00 UTC NOAA

Station name not available
Aug 22, 2019 - 03:00 AM EDT / 2019.08.22 0700 UTC
Wind: from the ESE (120 degrees) at 13 MPH (11 KT):0
Visibility: greater than 7 mile(s):0
Sky conditions: mostly cloudy
Temperature: 82 F (28 C)
Dew Point: 75 F (24 C)
Relative Humidity: 78%
Pressure (altimeter): 29.94 in. Hg (1014 hPa)
ob: TLPL 220700Z 12011KT 9999 BKN023 28/24 Q1014 NOSIG
cycle: 7

Station Type Date Time Source
TLPL TAF 2019/08/22 06:06 UTC NOAA

TAF TLPL 220500Z 2206/2306 11011KT 9999 SCT023
TEMPO 2206/2224 SHRA BKN018TCU PROB30
TEMPO 2218/2223 TSRA FEW015CB

Example: see airport list